createdAt,value
2022-10-09T00:05:27.473Z,13.60
2022-10-09T00:11:31.383Z,13.60
2022-10-09T00:17:33.736Z,13.50
2022-10-09T00:23:35.776Z,13.50
2022-10-09T00:29:37.947Z,13.40
2022-10-09T00:35:40.808Z,13.40
2022-10-09T00:41:43.168Z,13.30
2022-10-09T00:47:51.041Z,13.20
2022-10-09T00:53:53.452Z,13.10
2022-10-09T00:59:55.647Z,13.10
2022-10-09T01:06:21.019Z,13.00
2022-10-09T01:12:23.629Z,13.00
2022-10-09T01:18:58.678Z,12.90
2022-10-09T01:25:09.747Z,12.90
2022-10-09T01:31:13.625Z,12.80
2022-10-09T01:37:17.674Z,12.80
2022-10-09T01:43:20.020Z,12.80
2022-10-09T01:49:28.109Z,12.70
2022-10-09T01:55:55.234Z,12.60
2022-10-09T02:01:59.405Z,12.60
2022-10-09T02:08:01.591Z,12.50
2022-10-09T02:14:03.998Z,12.40
2022-10-09T02:20:17.674Z,12.40
2022-10-09T02:26:19.968Z,12.40
2022-10-09T02:32:22.809Z,12.40
2022-10-09T02:38:24.972Z,12.30
2022-10-09T02:44:27.203Z,12.30
2022-10-09T02:50:29.234Z,12.30
2022-10-09T02:56:34.504Z,12.30
2022-10-09T03:02:39.004Z,12.20
2022-10-09T03:08:43.687Z,12.20
2022-10-09T03:14:45.716Z,12.20
2022-10-09T03:20:47.934Z,12.20
2022-10-09T03:26:49.915Z,12.10
2022-10-09T03:32:52.357Z,12.10
2022-10-09T03:38:54.556Z,12.00
2022-10-09T03:44:57.858Z,12.00
2022-10-09T03:50:59.910Z,12.00
2022-10-09T03:57:01.979Z,12.00
2022-10-09T04:03:04.565Z,12.00
2022-10-09T04:09:06.735Z,12.00
2022-10-09T04:15:09.780Z,12.00
2022-10-09T04:21:13.393Z,12.00
2022-10-09T04:27:15.772Z,12.10
2022-10-09T04:33:18.169Z,12.20
2022-10-09T04:39:20.483Z,12.30
2022-10-09T04:45:22.790Z,12.50
2022-10-09T04:51:25.319Z,12.80
2022-10-09T04:57:27.564Z,14.10
2022-10-09T05:03:29.808Z,16.20
2022-10-09T05:09:32.141Z,17.00
2022-10-09T05:15:37.247Z,16.30
2022-10-09T05:21:39.351Z,16.60
2022-10-09T05:27:41.461Z,17.70
2022-10-09T05:33:43.666Z,17.40
2022-10-09T05:39:45.717Z,16.30
2022-10-09T05:45:47.987Z,16.50
2022-10-09T05:51:50.350Z,16.30
2022-10-09T05:57:53.578Z,16.60
2022-10-09T06:03:57.808Z,18.20
2022-10-09T06:10:00.041Z,17.70
2022-10-09T06:16:02.667Z,17.50
2022-10-09T06:22:04.696Z,18.60
2022-10-09T06:28:07.151Z,23.70
2022-10-09T06:34:09.763Z,27.50
2022-10-09T06:40:12.087Z,28.60
2022-10-09T06:46:14.439Z,29.90
2022-10-09T06:52:16.853Z,30.30
2022-10-09T06:58:19.002Z,32.10
2022-10-09T07:04:22.105Z,33.00
2022-10-09T07:10:25.344Z,34.20
2022-10-09T07:16:31.273Z,35.40
2022-10-09T07:22:33.594Z,34.30
2022-10-09T07:28:35.805Z,33.70
2022-10-09T07:34:38.220Z,35.40
2022-10-09T07:40:40.412Z,35.50
2022-10-09T07:46:42.756Z,34.70
2022-10-09T07:52:44.951Z,35.60
2022-10-09T07:58:51.742Z,36.50
2022-10-09T08:04:54.001Z,36.60
2022-10-09T08:10:56.433Z,36.50
2022-10-09T08:16:58.846Z,36.10
2022-10-09T08:23:00.908Z,35.90
2022-10-09T08:29:04.292Z,35.20
2022-10-09T08:35:06.767Z,33.20
2022-10-09T08:41:25.891Z,33.50
2022-10-09T08:47:40.328Z,32.50
2022-10-09T08:53:52.576Z,30.00
2022-10-09T08:59:54.814Z,27.20
2022-10-09T09:06:25.359Z,26.00
2022-10-09T09:12:45.745Z,25.30
2022-10-09T09:19:01.227Z,24.50
2022-10-09T09:25:16.436Z,24.20
2022-10-09T09:31:28.157Z,24.00
2022-10-09T09:37:30.449Z,24.10
2022-10-09T09:43:32.629Z,23.80
2022-10-09T09:49:34.829Z,24.20
2022-10-09T09:55:37.178Z,24.20
2022-10-09T10:01:39.432Z,24.00
2022-10-09T10:07:41.596Z,24.00
2022-10-09T10:13:49.673Z,24.40
2022-10-09T10:19:51.974Z,24.50
2022-10-09T10:25:56.967Z,24.60
2022-10-09T10:32:21.541Z,24.70
2022-10-09T10:38:31.958Z,24.80
2022-10-09T10:44:54.785Z,24.70
2022-10-09T10:51:01.732Z,25.20
2022-10-09T10:57:09.723Z,27.80
2022-10-09T11:03:23.915Z,30.60
2022-10-09T11:10:16.518Z,31.30
2022-10-09T11:16:33.191Z,31.90
2022-10-09T11:22:44.448Z,32.20
2022-10-09T11:28:53.910Z,33.30
2022-10-09T11:35:14.272Z,34.30
2022-10-09T11:41:16.783Z,34.30
2022-10-09T11:48:11.395Z,33.50
2022-10-09T11:54:17.332Z,28.30
2022-10-09T12:00:34.651Z,29.20
2022-10-09T12:06:48.232Z,27.00
2022-10-09T12:13:02.108Z,26.00
2022-10-09T12:19:28.542Z,25.10
2022-10-09T12:25:38.783Z,24.90
2022-10-09T12:31:42.699Z,24.80
2022-10-09T12:37:44.955Z,24.60
2022-10-09T12:43:48.063Z,24.40
2022-10-09T12:50:01.072Z,24.10
2022-10-09T12:56:11.396Z,24.10
2022-10-09T13:02:17.865Z,24.20
2022-10-09T13:08:30.088Z,24.10
2022-10-09T13:14:41.704Z,24.00
2022-10-09T13:20:43.837Z,24.10
2022-10-09T13:26:46.065Z,24.00
2022-10-09T13:32:48.370Z,23.90
2022-10-09T13:38:50.700Z,24.40
2022-10-09T13:44:53.103Z,24.70
2022-10-09T13:50:55.463Z,24.30
2022-10-09T13:56:57.864Z,24.20
2022-10-09T14:03:00.280Z,23.70
2022-10-09T14:09:03.072Z,23.50
2022-10-09T14:15:05.989Z,23.40
2022-10-09T14:21:14.591Z,23.20
2022-10-09T14:27:17.513Z,23.10
2022-10-09T14:33:19.574Z,23.00
2022-10-09T14:39:21.825Z,22.90
2022-10-09T14:45:23.961Z,22.70
2022-10-09T14:51:28.119Z,22.60
2022-10-09T14:57:32.938Z,22.50
2022-10-09T15:03:37.499Z,22.30
2022-10-09T15:09:39.649Z,22.00
2022-10-09T15:15:41.889Z,21.80
2022-10-09T15:21:44.099Z,21.60
2022-10-09T15:27:47.074Z,21.40
2022-10-09T15:33:52.880Z,21.20
2022-10-09T15:39:54.911Z,20.90
2022-10-09T15:46:05.067Z,20.70
2022-10-09T15:52:07.564Z,20.70
2022-10-09T15:58:09.490Z,20.60
2022-10-09T16:04:11.698Z,20.80
2022-10-09T16:10:14.160Z,20.60
2022-10-09T16:16:17.703Z,20.70
2022-10-09T16:22:19.922Z,20.60
2022-10-09T16:28:22.064Z,20.40
2022-10-09T16:34:24.438Z,20.30
2022-10-09T16:40:49.849Z,20.20
2022-10-09T16:46:48.892Z,20.10
2022-10-09T16:52:50.948Z,20.00
2022-10-09T16:58:58.100Z,20.00
2022-10-09T17:05:00.387Z,20.10
2022-10-09T17:11:02.730Z,20.20
2022-10-09T17:17:06.534Z,20.30
2022-10-09T17:23:08.918Z,20.40
2022-10-09T17:29:11.041Z,20.40
2022-10-09T17:35:13.526Z,20.30
2022-10-09T17:41:16.335Z,20.30
2022-10-09T17:47:18.738Z,20.30
2022-10-09T17:53:23.121Z,20.20
2022-10-09T17:59:25.593Z,20.10
2022-10-09T18:05:27.619Z,20.10
2022-10-09T18:11:30.487Z,20.10
2022-10-09T18:17:34.686Z,20.10
2022-10-09T18:23:37.444Z,20.10
2022-10-09T18:29:39.707Z,20.00
2022-10-09T18:35:42.101Z,20.00
2022-10-09T18:41:45.681Z,19.90
2022-10-09T18:47:48.123Z,19.70
2022-10-09T18:53:54.455Z,19.50
2022-10-09T18:59:58.505Z,19.30
2022-10-09T19:06:00.452Z,19.10
2022-10-09T19:12:02.574Z,18.90
2022-10-09T19:18:05.190Z,18.80
2022-10-09T19:24:07.411Z,18.60
2022-10-09T19:30:09.995Z,18.40
2022-10-09T19:36:13.021Z,18.20
2022-10-09T19:42:16.306Z,18.00
2022-10-09T19:48:20.518Z,17.70
2022-10-09T19:54:22.480Z,17.60
2022-10-09T20:07:12.927Z,17.30
2022-10-09T20:13:15.170Z,17.30
2022-10-09T20:19:17.358Z,17.30
2022-10-09T20:25:19.694Z,17.30
2022-10-09T20:31:24.312Z,17.30
2022-10-09T20:37:26.436Z,17.30
2022-10-09T20:43:28.494Z,17.30
2022-10-09T20:49:30.660Z,17.30
2022-10-09T20:55:34.129Z,17.20
2022-10-09T21:01:37.233Z,17.20
2022-10-09T21:07:39.205Z,17.10
2022-10-09T21:13:41.962Z,17.10
2022-10-09T21:19:43.873Z,17.10
2022-10-09T21:25:52.447Z,17.00
2022-10-09T21:31:54.692Z,16.90
2022-10-09T21:37:56.868Z,16.80
2022-10-09T21:43:59.424Z,16.70
2022-10-09T21:50:01.399Z,16.70
2022-10-09T21:56:04.632Z,16.70
2022-10-09T22:02:06.962Z,16.60
2022-10-09T22:08:09.191Z,16.50
2022-10-09T22:14:12.025Z,16.50
2022-10-09T22:20:14.898Z,16.50
2022-10-09T22:26:20.793Z,16.50
2022-10-09T22:32:22.743Z,16.60
2022-10-09T22:38:24.818Z,16.50
2022-10-09T22:44:26.891Z,16.50
2022-10-09T22:50:28.890Z,16.50
2022-10-09T22:56:36.568Z,16.50
2022-10-09T23:02:38.622Z,16.40
2022-10-09T23:08:42.866Z,16.40
2022-10-09T23:14:45.049Z,16.30
2022-10-09T23:20:47.175Z,16.30
2022-10-09T23:26:51.664Z,16.20
2022-10-09T23:32:54.088Z,16.20
2022-10-09T23:38:56.825Z,16.20
2022-10-09T23:44:58.804Z,16.20
2022-10-09T23:51:00.923Z,16.10
2022-10-09T23:57:03.105Z,16.10
